Time;durP1;ratioP1;P1;durP2;ratioP2;P2;SDS_P1;SDS_P2;PMS_P1;PMS_P2;Temp;Humidity;BMP_temperature;BMP_pressure;BME280_temperature;BME280_humidity;BME280_pressure;Samples;Min_cycle;Max_cycle;Signal;HPM_P1;HPM_P2
2022/07/05 00:01:04;;;;;;;6.55;4.70;;;;;;;24.44;55.27;99680.31;1746791;81;21027;-70
2022/07/05 00:03:31;;;;;;;4.90;4.50;;;;;;;24.41;55.87;99681.37;1751761;81;21146;-71
2022/07/05 00:05:57;;;;;;;5.83;5.08;;;;;;;24.39;55.68;99683.53;1745026;81;21506;-72
2022/07/05 00:08:25;;;;;;;6.20;4.35;;;;;;;24.37;55.68;99685.14;1755635;81;21483;-71
2022/07/05 00:10:53;;;;;;;5.45;4.28;;;;;;;24.34;55.64;99682.42;1763102;81;21066;-73
2022/07/05 00:13:19;;;;;;;9.20;4.67;;;;;;;24.32;55.67;99679.70;1751092;81;21119;-71
2022/07/05 00:15:46;;;;;;;7.83;4.53;;;;;;;24.31;55.61;99686.19;1764637;81;21244;-73
2022/07/05 00:18:15;;;;;;;5.47;4.90;;;;;;;24.28;55.67;99679.39;1741771;81;21090;-72
2022/07/05 00:20:41;;;;;;;6.37;5.35;;;;;;;24.28;55.78;99683.98;1752008;81;21041;-73
2022/07/05 00:23:08;;;;;;;8.45;5.40;;;;;;;24.26;55.79;99683.42;1764520;81;21561;-72
2022/07/05 00:25:34;;;;;;;8.00;4.60;;;;;;;24.23;55.94;99688.84;1763363;81;21120;-71
2022/07/05 00:28:01;;;;;;;6.65;4.78;;;;;;;24.21;56.05;99688.29;1764856;81;21118;-71
2022/07/05 00:30:28;;;;;;;5.50;4.87;;;;;;;24.21;56.28;99686.13;1758410;80;21044;-71
2022/07/05 00:32:54;;;;;;;6.65;4.95;;;;;;;24.19;56.41;99685.56;1752577;80;21561;-70
2022/07/05 00:35:21;;;;;;;6.53;5.30;;;;;;;24.18;56.37;99687.44;1762625;81;21058;-74
2022/07/05 00:37:48;;;;;;;8.60;4.83;;;;;;;24.16;56.43;99688.23;1758736;81;21085;-73
2022/07/05 00:40:14;;;;;;;6.95;5.00;;;;;;;24.13;56.58;99685.52;1764768;81;21147;-70
2022/07/05 00:42:41;;;;;;;5.15;4.65;;;;;;;24.12;56.60;99686.58;1752712;81;21010;-73
2022/07/05 00:45:09;;;;;;;10.93;5.05;;;;;;;24.10;56.61;99689.28;1767610;81;21033;-73
2022/07/05 00:47:36;;;;;;;5.35;4.60;;;;;;;24.09;56.68;99692.53;1763835;80;21072;-71
2022/07/05 00:50:03;;;;;;;6.90;5.40;;;;;;;24.07;56.74;99689.27;1752579;81;21041;-71
2022/07/05 00:52:31;;;;;;;5.65;4.75;;;;;;;24.06;56.82;99690.33;1752925;81;21116;-70
2022/07/05 00:54:58;;;;;;;7.15;5.30;;;;;;;24.06;56.87;99692.23;1751568;81;21092;-71
2022/07/05 00:57:24;;;;;;;7.25;5.25;;;;;;;24.05;56.87;99694.13;1752849;81;21548;-74
2022/07/05 00:59:51;;;;;;;5.85;4.80;;;;;;;24.05;57.13;99693.30;1750340;81;21080;-70
2022/07/05 01:02:19;;;;;;;6.87;5.10;;;;;;;24.02;57.46;99696.00;1761869;81;21082;-71
2022/07/05 01:04:48;;;;;;;6.33;4.58;;;;;;;24.00;57.77;99693.27;1748392;81;22008;-72
2022/07/05 01:07:18;;;;;;;5.87;5.20;;;;;;;23.96;57.88;99695.67;1796860;78;21055;-72
2022/07/05 01:09:47;;;;;;;6.95;5.58;;;;;;;23.91;58.24;99686.13;1821160;78;20989;-71
2022/07/05 01:12:13;;;;;;;7.12;5.87;;;;;;;23.86;58.44;99695.59;1821856;77;21025;-71
2022/07/05 01:14:41;;;;;;;8.35;5.58;;;;;;;23.81;58.94;99690.11;1822883;78;21540;-72
2022/07/05 01:17:08;;;;;;;5.85;5.08;;;;;;;23.76;59.13;99689.50;1841252;77;21064;-71
2022/07/05 01:19:35;;;;;;;5.75;5.08;;;;;;;23.69;59.58;99690.23;1804711;78;21016;-71
2022/07/05 01:22:07;;;;;;;7.92;5.15;;;;;;;23.62;59.78;99685.55;1818883;78;21064;-70
2022/07/05 01:24:34;;;;;;;6.47;5.40;;;;;;;23.55;60.04;99684.41;1801610;78;21037;-72
2022/07/05 01:27:00;;;;;;;6.33;5.08;;;;;;;23.50;60.59;99687.05;1817921;77;21107;-70
2022/07/05 01:29:27;;;;;;;6.42;5.42;;;;;;;23.43;60.83;99689.13;1788738;79;21198;-70
2022/07/05 01:31:54;;;;;;;8.40;5.65;;;;;;;23.31;61.28;99683.34;1809531;78;21034;-71
2022/07/05 01:34:21;;;;;;;7.97;5.42;;;;;;;23.25;61.44;99680.27;1821812;78;21037;-72
2022/07/05 01:36:48;;;;;;;8.30;4.90;;;;;;;23.20;61.27;99684.29;1810895;78;21024;-71
2022/07/05 01:39:14;;;;;;;7.15;5.80;;;;;;;23.15;61.63;99681.51;1823280;77;21029;-72
2022/07/05 01:41:42;;;;;;;6.03;5.42;;;;;;;23.11;61.95;99688.50;1816868;77;21228;-73
2022/07/05 01:44:08;;;;;;;10.93;6.75;;;;;;;23.05;61.78;99684.09;1790804;79;20994;-74
2022/07/05 01:46:37;;;;;;;7.47;6.28;;;;;;;23.03;62.39;99693.02;1807386;78;21027;-73
2022/07/05 01:49:13;;;;;;;7.33;5.72;;;;;;;22.98;62.71;99692.36;1789221;79;21002;-72
2022/07/05 01:51:58;;;;;;;7.22;5.55;;;;;;;22.94;62.50;99696.65;1813156;79;21030;-72
2022/07/05 01:54:25;;;;;;;6.97;5.55;;;;;;;22.91;62.58;99699.88;1813394;79;21148;-71
2022/07/05 01:56:52;;;;;;;7.58;5.62;;;;;;;22.87;62.65;99702.77;1814407;79;21571;-71
2022/07/05 01:59:18;;;;;;;5.90;5.30;;;;;;;22.84;62.87;99695.16;1813386;78;21101;-72
2022/07/05 02:01:45;;;;;;;8.40;5.70;;;;;;;22.81;63.16;99697.01;1813433;79;21530;-73
2022/07/05 02:04:13;;;;;;;6.60;5.97;;;;;;;22.75;63.41;99699.66;1809859;78;20975;-73
2022/07/05 02:06:41;;;;;;;8.00;5.90;;;;;;;22.71;63.70;99697.69;1802600;78;21492;-75
2022/07/05 02:09:09;;;;;;;7.22;6.35;;;;;;;22.66;63.96;99699.80;1803312;78;21002;-72
2022/07/05 02:11:37;;;;;;;6.87;4.90;;;;;;;22.64;64.42;99699.74;1825602;77;20964;-73
2022/07/05 02:14:04;;;;;;;6.85;6.12;;;;;;;22.58;64.87;99698.33;1789581;78;21002;-72
2022/07/05 02:16:33;;;;;;;7.75;6.08;;;;;;;22.56;64.57;99700.98;1810956;78;21037;-72
2022/07/05 02:19:01;;;;;;;8.80;6.10;;;;;;;22.57;65.31;99698.03;1814289;79;21197;-71
2022/07/05 02:21:30;;;;;;;7.40;6.22;;;;;;;22.60;64.95;99701.31;1761223;80;21529;-73
2022/07/05 02:23:56;;;;;;;7.05;6.30;;;;;;;22.63;64.84;99705.70;1800208;79;21057;-72
2022/07/05 02:26:25;;;;;;;7.42;5.65;;;;;;;22.65;65.00;99698.69;1812206;78;20990;-73
2022/07/05 02:28:52;;;;;;;7.17;6.35;;;;;;;22.65;64.87;99701.39;1814097;79;21647;-72
2022/07/05 02:31:20;;;;;;;6.87;6.15;;;;;;;22.65;65.01;99700.04;1814250;79;22188;-74
2022/07/05 02:33:48;;;;;;;7.50;6.53;;;;;;;22.67;64.88;99695.19;1806091;77;20974;-76
2022/07/05 02:36:15;;;;;;;9.38;5.55;;;;;;;22.70;64.27;99699.58;1812554;78;21053;-73
2022/07/05 02:38:42;;;;;;;7.53;5.75;;;;;;;22.77;63.90;99699.39;1784540;79;21072;-74
2022/07/05 02:41:10;;;;;;;7.12;6.42;;;;;;;22.85;63.66;99691.38;1803822;77;21068;-73
2022/07/05 02:43:38;;;;;;;8.05;6.25;;;;;;;22.91;63.33;99696.63;1819665;78;21080;-74
2022/07/05 02:46:06;;;;;;;8.05;6.17;;;;;;;22.98;63.16;99691.01;1816954;78;21012;-76
2022/07/05 02:48:34;;;;;;;8.30;6.50;;;;;;;23.07;63.04;99696.86;1815492;78;20983;-76
2022/07/05 02:51:01;;;;;;;6.37;5.78;;;;;;;23.13;62.86;99698.55;1812156;78;21083;-75
2022/07/05 02:53:29;;;;;;;6.50;5.85;;;;;;;23.20;62.74;99695.64;1803901;78;21032;-74
2022/07/05 02:55:55;;;;;;;6.67;5.90;;;;;;;23.27;62.46;99700.34;1823840;78;21177;-74
2022/07/05 02:58:22;;;;;;;11.28;5.80;;;;;;;23.35;62.31;99703.44;1812547;78;21021;-76
2022/07/05 03:00:49;;;;;;;9.50;6.15;;;;;;;23.44;62.36;99704.34;1824924;78;21037;-75
2022/07/05 03:03:16;;;;;;;7.53;5.87;;;;;;;23.52;62.20;99701.98;1820404;78;21153;-76
2022/07/05 03:05:46;;;;;;;6.25;5.65;;;;;;;23.59;62.04;99699.08;1825439;78;21641;-76
2022/07/05 03:08:12;;;;;;;6.42;5.78;;;;;;;23.66;61.82;99696.16;1826082;78;21863;-76
2022/07/05 03:10:41;;;;;;;7.03;6.05;;;;;;;23.73;61.64;99699.49;1823512;78;20977;-76
2022/07/05 03:13:07;;;;;;;6.72;6.03;;;;;;;23.78;61.55;99694.64;1804852;78;21084;-77
2022/07/05 03:15:34;;;;;;;7.92;6.10;;;;;;;23.83;61.48;99697.45;1810432;77;21048;-75
2022/07/05 03:18:01;;;;;;;6.62;6.03;;;;;;;23.87;61.43;99694.50;1808384;78;21025;-74
2022/07/05 03:20:29;;;;;;;9.53;6.12;;;;;;;23.91;61.34;99696.46;1802537;78;21477;-76
2022/07/05 03:22:56;;;;;;;6.85;6.15;;;;;;;23.93;61.33;99700.25;1801961;78;21021;-72
2022/07/05 03:25:24;;;;;;;7.37;6.15;;;;;;;23.95;62.15;99702.16;1813283;78;21021;-75
2022/07/05 03:27:52;;;;;;;7.47;6.28;;;;;;;23.95;62.58;99713.02;1815143;78;21463;-75
2022/07/05 03:30:19;;;;;;;6.78;6.17;;;;;;;23.94;62.65;99711.39;1805992;78;20978;-75
2022/07/05 03:32:45;;;;;;;7.00;6.30;;;;;;;23.97;63.04;99710.89;1820432;78;21181;-74
2022/07/05 03:35:12;;;;;;;7.30;6.60;;;;;;;24.00;63.79;99714.43;1819477;78;21063;-74
2022/07/05 03:37:39;;;;;;;6.60;5.62;;;;;;;24.06;63.42;99716.66;1814801;78;21084;-73
2022/07/05 03:40:07;;;;;;;6.83;6.03;;;;;;;24.11;62.84;99715.35;1809154;78;21002;-76
2022/07/05 03:42:35;;;;;;;7.22;6.40;;;;;;;24.13;62.89;99714.00;1800114;78;21020;-75
2022/07/05 03:45:05;;;;;;;7.62;6.28;;;;;;;24.13;62.54;99715.91;1792713;78;21673;-76
2022/07/05 03:47:32;;;;;;;10.48;7.17;;;;;;;24.15;62.69;99716.47;1813628;79;21073;-73
2022/07/05 03:49:59;;;;;;;8.10;6.40;;;;;;;24.18;62.83;99715.12;1813067;79;21001;-74
2022/07/05 03:52:26;;;;;;;6.47;5.78;;;;;;;24.21;62.76;99720.86;1814190;79;21005;-74
2022/07/05 03:54:53;;;;;;;7.35;6.55;;;;;;;24.25;62.55;99721.16;1794540;77;21040;-73
2022/07/05 03:57:20;;;;;;;12.18;6.40;;;;;;;24.31;62.87;99718.77;1802315;79;21138;-74
2022/07/05 03:59:47;;;;;;;7.10;6.28;;;;;;;24.38;62.87;99726.16;1792582;79;21467;-73
2022/07/05 04:02:15;;;;;;;8.53;6.50;;;;;;;24.46;62.75;99716.72;1799619;79;21021;-74
2022/07/05 04:04:42;;;;;;;9.20;6.70;;;;;;;24.52;62.59;99719.77;1811687;79;21470;-74
2022/07/05 04:07:08;;;;;;;10.68;6.33;;;;;;;24.59;62.30;99717.66;1810933;79;21485;-74
2022/07/05 04:09:36;;;;;;;9.95;7.00;;;;;;;24.66;62.27;99714.70;1805483;78;21155;-74
2022/07/05 04:12:04;;;;;;;8.68;7.05;;;;;;;24.73;62.07;99712.03;1814606;79;20994;-73
2022/07/05 04:14:33;;;;;;;6.95;6.33;;;;;;;24.79;62.33;99714.23;1809285;78;21041;-76
2022/07/05 04:16:59;;;;;;;6.97;6.10;;;;;;;24.83;62.37;99709.91;1814007;79;20982;-74
2022/07/05 04:19:26;;;;;;;7.53;6.70;;;;;;;24.87;62.39;99709.66;1811278;77;21077;-74
2022/07/05 04:21:55;;;;;;;7.15;6.03;;;;;;;24.94;62.58;99710.80;1814491;78;20987;-76
2022/07/05 04:24:22;;;;;;;7.95;6.25;;;;;;;25.00;62.47;99712.45;1811425;79;20995;-75
2022/07/05 04:26:49;;;;;;;10.72;6.25;;;;;;;25.07;62.74;99702.69;1796420;79;21068;-74
2022/07/05 04:29:16;;;;;;;11.40;6.00;;;;;;;25.14;62.78;99705.98;1808638;78;21009;-75
2022/07/05 04:31:42;;;;;;;10.03;7.42;;;;;;;25.20;62.28;99705.47;1800435;78;21098;-76
2022/07/05 04:34:09;;;;;;;7.55;6.85;;;;;;;25.24;61.77;99703.88;1789649;78;21484;-75
2022/07/05 04:36:40;;;;;;;9.05;6.08;;;;;;;25.28;61.48;99705.82;1796203;77;21050;-76
2022/07/05 04:39:08;;;;;;;9.93;6.33;;;;;;;25.30;60.85;99705.02;1790422;78;21002;-76
2022/07/05 04:41:35;;;;;;;12.18;7.17;;;;;;;25.34;61.24;99707.18;1810736;79;20998;-75
2022/07/05 04:44:04;;;;;;;7.58;6.78;;;;;;;25.28;61.14;99704.46;1817409;78;21026;-76
2022/07/05 04:46:33;;;;;;;8.23;7.12;;;;;;;25.25;61.50;99702.27;1820038;78;21106;-74
2022/07/05 04:49:00;;;;;;;6.83;6.03;;;;;;;25.25;61.70;99707.70;1804712;77;21048;-74
2022/07/05 04:51:27;;;;;;;8.05;6.30;;;;;;;25.27;62.01;99702.00;1808786;77;21037;-76
2022/07/05 04:53:55;;;;;;;9.20;7.12;;;;;;;25.27;62.83;99706.89;1813780;78;21029;-74
2022/07/05 04:56:22;;;;;;;9.83;6.25;;;;;;;25.27;62.92;99709.61;1795683;78;21103;-75
2022/07/05 04:58:48;;;;;;;13.08;6.60;;;;;;;25.28;62.88;99703.10;1814130;78;21118;-74
2022/07/05 05:01:15;;;;;;;11.55;7.00;;;;;;;25.34;62.66;99707.18;1798649;78;21046;-75
2022/07/05 05:03:43;;;;;;;12.50;6.80;;;;;;;25.40;62.99;99710.19;1811857;78;21155;-74
2022/07/05 05:06:10;;;;;;;6.87;6.28;;;;;;;25.51;63.38;99713.22;1790831;78;21067;-74
2022/07/05 05:08:38;;;;;;;10.30;6.80;;;;;;;25.62;63.38;99705.91;1814819;77;21002;-75
2022/07/05 05:11:05;;;;;;;7.30;6.60;;;;;;;25.75;62.63;99710.84;1804683;77;21725;-75
2022/07/05 05:13:31;;;;;;;9.38;7.05;;;;;;;25.88;62.75;99708.95;1811818;77;21100;-76
2022/07/05 05:15:58;;;;;;;7.35;6.67;;;;;;;26.03;61.96;99712.25;1818885;77;21486;-76
2022/07/05 05:18:26;;;;;;;7.70;6.80;;;;;;;26.16;61.77;99716.34;1816495;78;21498;-79
2022/07/05 05:20:54;;;;;;;12.37;7.28;;;;;;;26.29;61.75;99720.44;1818309;78;21007;-77
2022/07/05 05:23:22;;;;;;;8.03;6.30;;;;;;;26.40;60.87;99719.32;1792375;78;21927;-77
2022/07/05 05:25:48;;;;;;;10.08;6.97;;;;;;;26.55;60.37;99717.69;1801879;78;21044;-79
2022/07/05 05:28:15;;;;;;;11.43;6.37;;;;;;;26.73;60.02;99721.22;1809372;77;20978;-77
2022/07/05 05:30:42;;;;;;;7.05;6.45;;;;;;;26.92;59.35;99727.45;1804361;77;21061;-78
2022/07/05 05:33:08;;;;;;;10.43;7.55;;;;;;;27.10;58.68;99719.20;1817199;78;21049;-78
2022/07/05 05:35:35;;;;;;;13.10;6.25;;;;;;;27.21;58.00;99720.25;1784774;78;21185;-79
2022/07/05 05:38:05;;;;;;;9.35;6.37;;;;;;;27.32;57.91;99721.06;1822373;78;21026;-79
2022/07/05 05:40:32;;;;;;;7.37;6.40;;;;;;;27.43;57.16;99727.30;1810443;78;21010;-77
2022/07/05 05:42:59;;;;;;;9.15;6.72;;;;;;;27.52;56.65;99726.95;1795129;78;21041;-78
2022/07/05 05:45:26;;;;;;;8.93;6.50;;;;;;;27.59;56.26;99717.92;1803594;78;21009;-77
2022/07/05 05:47:55;;;;;;;8.00;6.75;;;;;;;27.68;56.42;99725.51;1821380;77;21139;-79
2022/07/05 05:50:35;;;;;;;8.68;6.83;;;;;;;27.72;55.77;99718.38;1814130;78;21030;-77
2022/07/05 05:53:01;;;;;;;14.33;7.17;;;;;;;27.75;55.52;99714.55;1817021;78;21766;-79
2022/07/05 05:55:29;;;;;;;12.13;7.92;;;;;;;27.77;55.61;99715.63;1822650;78;21021;-80
2022/07/05 05:57:57;;;;;;;10.32;7.22;;;;;;;27.78;55.56;99715.91;1822794;78;21530;-80
2022/07/05 06:00:24;;;;;;;10.23;7.40;;;;;;;27.83;55.17;99718.59;1818425;77;21201;-79
2022/07/05 06:02:52;;;;;;;8.95;7.08;;;;;;;27.89;55.38;99709.85;1811856;78;21013;-77
2022/07/05 06:05:18;;;;;;;7.97;6.87;;;;;;;27.96;54.96;99709.80;1815860;77;21143;-78
2022/07/05 06:07:50;;;;;;;10.13;7.95;;;;;;;28.04;54.81;99706.45;1823175;78;21087;-77
2022/07/05 06:10:22;;;;;;;10.85;7.20;;;;;;;28.14;54.88;99712.37;1825783;78;21029;-78
2022/07/05 06:12:49;;;;;;;10.20;7.30;;;;;;;28.23;55.40;99713.96;1815480;78;21984;-77
2022/07/05 06:15:16;;;;;;;13.18;8.00;;;;;;;28.28;54.84;99711.20;1813828;78;21057;-76
2022/07/05 06:17:43;;;;;;;9.53;7.97;;;;;;;28.33;54.68;99713.86;1750990;81;21104;-78
2022/07/05 06:20:15;;;;;;;10.00;7.87;;;;;;;28.41;55.23;99719.26;1766980;81;21072;-79
2022/07/05 06:22:43;;;;;;;9.37;7.03;;;;;;;28.48;54.91;99713.48;1766259;80;21072;-82
2022/07/05 06:25:11;;;;;;;10.43;7.35;;;;;;;28.55;54.84;99713.96;1754286;81;21295;-81
2022/07/05 06:27:41;;;;;;;12.85;8.13;;;;;;;28.62;55.65;99709.79;1761712;81;21049;-80
2022/07/05 06:30:09;;;;;;;8.08;7.28;;;;;;;28.70;55.24;99709.70;1751419;81;21044;-81
2022/07/05 06:32:35;;;;;;;8.53;7.60;;;;;;;28.75;54.96;99711.59;1756540;80;21063;-82
2022/07/05 06:35:02;;;;;;;9.68;7.45;;;;;;;28.80;54.99;99715.62;1755935;79;21253;-81
2022/07/05 06:37:48;;;;;;;12.07;7.08;;;;;;;28.87;54.62;99713.36;1765902;80;21406;-81
2022/07/05 06:40:21;;;;;;;18.57;6.85;;;;;;;28.92;53.87;99711.14;1779388;78;21520;-84
2022/07/05 06:42:52;;;;;;;8.50;6.70;;;;;;;28.95;53.53;99713.27;1788906;78;21508;-81
2022/07/05 06:45:22;;;;;;;7.22;6.47;;;;;;;28.94;52.98;99711.66;1755874;81;21010;-81
2022/07/05 06:48:05;;;;;;;12.30;6.62;;;;;;;28.92;53.38;99711.14;1759828;81;20975;-84
2022/07/05 06:50:41;;;;;;;7.78;6.42;;;;;;;28.91;53.41;99710.86;1750040;80;20998;-80
2022/07/05 06:53:07;;;;;;;8.45;6.60;;;;;;;28.93;53.33;99714.92;1749268;81;20998;-82
2022/07/05 06:55:34;;;;;;;7.85;6.28;;;;;;;28.95;53.12;99712.72;1762769;80;21071;-82
2022/07/05 06:58:07;;;;;;;8.93;6.25;;;;;;;29.01;52.55;99710.73;1766921;80;21002;-88
2022/07/05 07:00:34;;;;;;;12.60;6.30;;;;;;;29.03;52.53;99719.46;1761558;81;21074;-87
2022/07/05 07:03:01;;;;;;;8.10;6.45;;;;;;;29.08;52.17;99718.61;1757988;81;21204;-84
2022/07/05 07:05:28;;;;;;;9.60;6.95;;;;;;;29.13;52.21;99713.09;1762227;80;21045;-82
2022/07/05 07:10:41;;;;;;;9.40;5.65;;;;;;;29.24;52.01;99715.16;1763313;80;21005;-84
2022/07/05 07:13:08;;;;;;;7.17;5.95;;;;;;;29.27;51.69;99715.95;1767537;79;21120;-86
2022/07/05 07:15:37;;;;;;;6.22;5.53;;;;;;;29.34;51.74;99715.85;1760214;80;21103;-85
2022/07/05 07:18:04;;;;;;;8.73;6.20;;;;;;;29.39;50.32;99718.50;1774539;80;20993;-87
2022/07/05 07:20:31;;;;;;;6.85;6.15;;;;;;;29.36;50.10;99711.43;1772387;80;21494;-85
2022/07/05 07:22:57;;;;;;;11.55;5.87;;;;;;;29.38;50.06;99713.31;1763804;80;21001;-83
2022/07/05 07:25:26;;;;;;;6.62;6.03;;;;;;;29.41;50.53;99707.27;1752121;80;21080;-82
2022/07/05 07:27:55;;;;;;;7.70;5.65;;;;;;;29.46;50.66;99711.84;1767492;80;21244;-82
2022/07/05 07:30:26;;;;;;;6.95;6.25;;;;;;;29.50;49.79;99716.45;1764073;79;21108;-83
2022/07/05 07:32:54;;;;;;;10.18;6.50;;;;;;;29.57;49.50;99716.07;1761568;80;21084;-80
2022/07/05 07:35:21;;;;;;;7.58;6.83;;;;;;;29.67;49.27;99721.95;1765204;80;21060;-79
2022/07/05 07:37:49;;;;;;;6.80;6.20;;;;;;;29.82;49.44;99708.07;1801269;78;21029;-82
2022/07/05 07:40:16;;;;;;;7.90;7.08;;;;;;;30.05;49.22;99711.02;1768266;81;21214;-83
2022/07/05 07:42:45;;;;;;;8.48;6.30;;;;;;;30.26;48.86;99700.53;1761568;81;21085;-79
2022/07/05 07:45:11;;;;;;;8.03;6.22;;;;;;;30.44;48.14;99707.09;1739030;81;21018;-82
2022/07/05 07:47:40;;;;;;;6.25;5.67;;;;;;;30.56;47.53;99706.07;1752908;81;21014;-80
2022/07/05 07:50:07;;;;;;;8.40;6.08;;;;;;;30.65;47.38;99703.43;1733093;81;21010;-78
2022/07/05 07:52:36;;;;;;;7.35;5.90;;;;;;;30.71;47.71;99696.19;1750704;81;21311;-79
2022/07/05 07:55:05;;;;;;;9.80;6.40;;;;;;;30.79;47.91;99691.93;1745456;81;21089;-81
2022/07/05 07:58:59;;;;;;;8.48;6.78;;;;;;;30.89;47.49;99697.77;1777373;78;22626;-81
2022/07/05 08:01:26;;;;;;;7.00;5.47;;;;;;;30.87;46.53;99698.64;1747077;79;20965;-81
2022/07/05 08:03:52;;;;;;;5.90;5.20;;;;;;;30.88;46.22;99695.56;1744218;78;21098;-82
2022/07/05 08:06:21;;;;;;;6.80;6.10;;;;;;;30.95;46.40;99691.09;1749341;81;21012;-84
2022/07/05 08:08:49;;;;;;;6.35;5.70;;;;;;;31.02;46.27;99690.10;1727806;80;21089;-81
2022/07/05 08:11:15;;;;;;;6.92;5.47;;;;;;;31.10;45.55;99687.20;1741884;81;21100;-78
2022/07/05 08:13:42;;;;;;;6.03;5.53;;;;;;;31.15;45.07;99684.36;1739611;81;21933;-79
2022/07/05 08:16:10;;;;;;;6.80;5.72;;;;;;;31.19;44.42;99679.08;1747402;81;21896;-78
2022/07/05 08:21:37;;;;;;;6.17;5.10;;;;;;;31.17;44.94;99680.75;1742938;80;21492;-79
2022/07/05 08:24:03;;;;;;;5.92;5.33;;;;;;;31.16;45.13;99667.59;1748488;81;21038;-81
2022/07/05 08:26:31;;;;;;;6.28;5.20;;;;;;;31.24;44.50;99663.88;1754025;81;21046;-81
2022/07/05 08:29:01;;;;;;;5.50;4.65;;;;;;;31.31;44.15;99669.74;1731698;81;21167;-82
2022/07/05 08:31:28;;;;;;;5.30;4.80;;;;;;;31.33;43.96;99677.11;1753767;81;21065;-80
2022/07/05 08:33:55;;;;;;;5.42;4.92;;;;;;;31.31;43.49;99673.32;1747318;80;21101;-80
2022/07/05 08:36:23;;;;;;;5.42;4.92;;;;;;;31.28;43.20;99665.69;1745902;81;21030;-82
2022/07/05 08:38:49;;;;;;;6.45;5.05;;;;;;;31.27;43.38;99664.05;1749003;81;21585;-82
2022/07/05 08:41:18;;;;;;;6.12;5.28;;;;;;;31.35;43.28;99674.33;1747164;80;21110;-80
2022/07/05 08:43:48;;;;;;;5.12;4.60;;;;;;;31.47;43.69;99667.52;1739146;80;21037;-81
2022/07/05 08:46:15;;;;;;;5.62;5.12;;;;;;;31.58;43.55;99669.45;1738624;80;21101;-79
2022/07/05 08:48:44;;;;;;;5.58;5.00;;;;;;;31.68;42.99;99671.95;1748296;80;21049;-79
2022/07/05 08:51:12;;;;;;;6.58;5.62;;;;;;;31.71;42.97;99668.59;1730284;80;21543;-81
2022/07/05 08:53:41;;;;;;;5.50;5.00;;;;;;;31.75;42.72;99666.27;1741328;80;21605;-84
2022/07/05 08:56:08;;;;;;;6.03;4.90;;;;;;;31.87;42.64;99666.28;1743867;81;20999;-86
2022/07/05 08:58:36;;;;;;;7.35;5.50;;;;;;;31.97;42.76;99666.05;1748092;80;21009;-84
2022/07/05 09:01:02;;;;;;;6.62;5.95;;;;;;;32.06;42.59;99673.80;1731489;80;21641;-85
2022/07/05 09:03:34;;;;;;;5.70;4.90;;;;;;;32.15;42.47;99673.87;1740173;80;21081;-86
2022/07/05 09:06:02;;;;;;;;;;;;;;;32.19;42.90;99671.30;1749323;81;20971;-81
2022/07/05 09:08:32;;;;;;;15.50;9.23;;;;;;;32.12;42.14;99674.48;1755575;80;20193;-83
2022/07/05 09:11:01;;;;;;;6.42;5.83;;;;;;;32.00;43.64;99676.40;1756996;78;21069;-83
2022/07/05 09:13:32;;;;;;;6.50;5.87;;;;;;;31.83;43.10;99673.53;1742078;80;21046;-86
2022/07/05 09:15:59;;;;;;;5.72;5.08;;;;;;;31.65;42.89;99680.83;1739766;81;21037;-83
2022/07/05 09:18:49;;;;;;;7.47;5.00;;;;;;;31.54;42.47;99672.00;1754323;81;21128;-84
2022/07/05 09:21:24;;;;;;;6.80;6.15;;;;;;;31.49;42.32;99674.88;1736512;81;21049;-86
2022/07/05 09:24:00;;;;;;;9.95;6.33;;;;;;;31.47;42.83;99673.81;1745024;80;21037;-87
2022/07/05 09:26:42;;;;;;;14.05;5.80;;;;;;;31.53;42.87;99675.89;1755765;80;21041;-85
2022/07/05 09:29:12;;;;;;;12.80;5.75;;;;;;;31.78;43.49;99673.67;1747980;80;21023;-82
2022/07/05 09:31:45;;;;;;;9.48;6.03;;;;;;;32.30;43.99;99672.67;1735736;81;21260;-81
2022/07/05 09:34:17;;;;;;;7.95;6.30;;;;;;;32.90;42.52;99674.08;1745145;80;21564;-84
2022/07/05 09:36:55;;;;;;;;;;;;;;;33.59;42.68;99671.20;1747069;80;21038;-84
2022/07/05 09:39:36;;;;;;;9.35;6.87;;;;;;;34.27;41.54;99673.70;1744767;80;20320;-85
2022/07/05 09:42:23;;;;;;;7.62;6.25;;;;;;;34.90;40.63;99675.89;1744955;81;21065;-86
2022/07/05 09:44:55;;;;;;;6.22;5.70;;;;;;;35.55;38.85;99679.23;1750013;80;21098;-87
2022/07/05 09:47:27;;;;;;;6.15;5.60;;;;;;;36.13;38.22;99679.95;1757247;80;21065;-83
2022/07/05 09:49:56;;;;;;;7.10;6.35;;;;;;;36.61;37.36;99676.48;1755256;80;21064;-83
2022/07/05 09:52:39;;;;;;;12.13;5.95;;;;;;;37.10;37.03;99668.77;1736667;80;21593;-85
2022/07/05 09:55:18;;;;;;;7.85;5.22;;;;;;;37.65;36.33;99675.38;1732430;81;21109;-83
2022/07/05 09:57:46;;;;;;;7.10;5.70;;;;;;;38.28;35.07;99663.06;1742855;80;21113;-83
2022/07/05 10:00:16;;;;;;;7.12;5.72;;;;;;;38.74;34.15;99665.42;1744664;80;21533;-83
2022/07/05 10:02:44;;;;;;;12.88;6.30;;;;;;;39.15;33.31;99658.24;1746586;80;21053;-82
2022/07/05 10:05:21;;;;;;;5.72;5.25;;;;;;;39.45;33.43;99659.92;1742153;80;21042;-82
2022/07/05 10:07:51;;;;;;;6.85;5.20;;;;;;;39.87;32.66;99663.31;1738920;80;21065;-81
2022/07/05 10:10:20;;;;;;;5.70;5.17;;;;;;;40.27;32.27;99669.05;1747906;80;21123;-83
2022/07/05 10:12:58;;;;;;;5.62;5.17;;;;;;;40.58;31.29;99668.61;1746480;80;21509;-85
2022/07/05 10:15:31;;;;;;;6.28;5.22;;;;;;;40.93;31.00;99656.44;1735034;80;21538;-82
2022/07/05 10:18:12;;;;;;;6.80;4.78;;;;;;;41.29;30.65;99648.61;1748155;81;21557;-83
2022/07/05 10:20:44;;;;;;;5.78;4.58;;;;;;;41.63;30.63;99649.46;1751775;81;21006;-83
2022/07/05 10:23:17;;;;;;;5.95;5.00;;;;;;;41.91;30.09;99644.77;1750265;78;21108;-82
2022/07/05 10:25:48;;;;;;;5.45;4.95;;;;;;;41.91;29.96;99641.98;1759925;80;20975;-85
2022/07/05 10:28:16;;;;;;;6.72;4.95;;;;;;;41.96;29.68;99641.64;1752171;80;21013;-81
2022/07/05 10:30:46;;;;;;;5.37;4.87;;;;;;;41.75;29.55;99640.03;1752186;80;21050;-83
2022/07/05 10:33:16;;;;;;;5.65;5.00;;;;;;;41.68;29.81;99635.77;1683711;83;21104;-81
2022/07/05 10:35:43;;;;;;;5.28;4.80;;;;;;;41.70;29.98;99632.79;1685009;82;21845;-85
2022/07/05 10:38:10;;;;;;;6.67;5.35;;;;;;;41.75;29.85;99637.23;1681314;84;21549;-83
2022/07/05 10:40:37;;;;;;;4.87;4.47;;;;;;;41.50;29.84;99636.92;1691566;84;21116;-83
2022/07/05 10:43:06;;;;;;;5.67;4.92;;;;;;;41.45;30.07;99632.47;1691473;84;21518;-85
2022/07/05 10:45:34;;;;;;;6.30;5.70;;;;;;;41.58;29.77;99629.64;1694218;84;21122;-84
2022/07/05 10:48:22;;;;;;;6.80;4.95;;;;;;;41.60;29.81;99630.06;1687881;83;21101;-83
2022/07/05 10:51:04;;;;;;;6.00;5.40;;;;;;;41.59;29.54;99624.30;1686898;82;21077;-80
2022/07/05 10:53:41;;;;;;;;;;;;;;;41.46;29.60;99625.73;1689667;83;21079;-83
2022/07/05 10:56:11;;;;;;;6.58;5.35;;;;;;;41.07;29.57;99628.80;1688263;84;20524;-86
2022/07/05 10:58:44;;;;;;;6.35;5.22;;;;;;;40.44;30.21;99632.41;1686245;84;21107;-84
2022/07/05 11:01:22;;;;;;;5.90;5.17;;;;;;;40.00;30.54;99623.08;1675427;83;21198;-85
2022/07/05 11:04:04;;;;;;;6.97;5.60;;;;;;;39.59;30.92;99631.02;1741422;82;21072;-84
2022/07/05 11:06:41;;;;;;;5.72;5.15;;;;;;;39.09;31.47;99623.00;1745938;80;21038;-85
2022/07/05 11:09:14;;;;;;;6.30;5.65;;;;;;;38.63;31.60;99622.72;1736662;80;21140;-83
2022/07/05 11:12:00;;;;;;;6.97;5.87;;;;;;;38.18;32.14;99622.59;1738393;80;21073;-84
2022/07/05 11:14:31;;;;;;;6.37;5.05;;;;;;;37.81;32.46;99627.73;1742021;81;22098;-84
2022/07/05 11:17:16;;;;;;;6.00;5.45;;;;;;;37.41;32.87;99625.00;1748916;81;21335;-84
2022/07/05 11:20:08;;;;;;;6.40;5.40;;;;;;;37.03;33.00;99620.67;1742773;80;21116;-86
2022/07/05 11:22:58;;;;;;;6.80;6.10;;;;;;;36.68;33.46;99618.41;1746163;80;21017;-86
2022/07/05 11:25:28;;;;;;;5.62;5.12;;;;;;;36.39;34.11;99613.30;1743236;80;20896;-85
2022/07/05 11:28:09;;;;;;;11.28;5.87;;;;;;;36.06;34.45;99618.30;1711024;80;21119;-85
2022/07/05 11:30:56;;;;;;;5.75;5.10;;;;;;;35.79;35.04;99621.11;1726439;81;21050;-85
2022/07/05 11:33:33;;;;;;;7.30;5.22;;;;;;;35.47;35.94;99619.94;1741486;80;21057;-93
2022/07/05 11:36:00;;;;;;;8.43;5.50;;;;;;;35.12;36.76;99620.15;1753007;79;21017;-82
2022/07/05 11:38:27;;;;;;;8.48;5.65;;;;;;;34.75;37.32;99626.25;1755206;78;21066;-82
2022/07/05 11:40:55;;;;;;;8.80;5.17;;;;;;;34.51;37.56;99625.43;1737478;80;21206;-84
2022/07/05 11:43:29;;;;;;;6.70;6.05;;;;;;;34.42;37.82;99618.59;1734745;79;21063;-81
2022/07/05 11:45:59;;;;;;;5.90;5.30;;;;;;;34.38;38.18;99623.70;1733109;80;21031;-85
2022/07/05 11:48:29;;;;;;;7.33;5.87;;;;;;;34.31;38.12;99622.84;1735810;82;21085;-86
2022/07/05 11:50:56;;;;;;;9.08;5.87;;;;;;;34.31;38.29;99619.26;1730869;82;21560;-89